createdAt,value
2023-04-08T00:01:40.291Z,59.13
2023-04-08T00:04:07.237Z,59.17
2023-04-08T00:06:33.978Z,58.79
2023-04-08T00:09:00.704Z,58.95
2023-04-08T00:11:27.297Z,59.16
2023-04-08T00:13:53.911Z,57.91
2023-04-08T00:16:20.570Z,57.39
2023-04-08T00:18:47.395Z,58.61
2023-04-08T00:21:14.102Z,59.27
2023-04-08T00:23:40.683Z,59.49
2023-04-08T00:26:07.275Z,58.01
2023-04-08T00:28:33.874Z,62.30
2023-04-08T00:31:00.655Z,61.68
2023-04-08T00:33:27.368Z,60.55
2023-04-08T00:35:54.038Z,59.75
2023-04-08T00:38:20.852Z,59.01
2023-04-08T00:40:47.621Z,58.42
2023-04-08T00:43:14.259Z,58.37
2023-04-08T00:45:40.900Z,58.19
2023-04-08T00:48:07.628Z,57.79
2023-04-08T00:50:34.278Z,57.33
2023-04-08T00:53:02.167Z,57.68
2023-04-08T00:55:29.079Z,60.63
2023-04-08T00:57:56.647Z,60.35
2023-04-08T01:00:24.150Z,60.03
2023-04-08T01:03:35.513Z,59.14
2023-04-08T01:06:26.069Z,59.19
2023-04-08T01:08:54.685Z,59.27
2023-04-08T01:11:21.280Z,59.46
2023-04-08T01:13:54.256Z,59.63
2023-04-08T01:16:25.079Z,60.08
2023-04-08T01:18:54.033Z,59.74
2023-04-08T01:21:23.590Z,59.65
2023-04-08T01:24:13.302Z,61.09
2023-04-08T01:26:41.360Z,60.04
2023-04-08T01:29:09.925Z,61.40
2023-04-08T01:31:39.230Z,60.63
2023-04-08T01:34:08.165Z,61.59
2023-04-08T01:36:38.454Z,60.45
2023-04-08T01:39:06.708Z,60.06
2023-04-08T01:41:37.246Z,60.78
2023-04-08T01:44:05.602Z,61.23
2023-04-08T01:46:33.940Z,63.20
2023-04-08T01:49:01.527Z,62.38
2023-04-08T01:51:30.755Z,62.04
2023-04-08T01:53:58.161Z,62.89
2023-04-08T01:56:32.708Z,62.76
2023-04-08T01:59:01.431Z,61.51
2023-04-08T02:01:30.723Z,63.11
2023-04-08T02:04:00.342Z,62.75
2023-04-08T02:06:28.741Z,63.23
2023-04-08T02:08:56.054Z,62.57
2023-04-08T02:11:22.859Z,63.38
2023-04-08T02:13:49.530Z,63.51
2023-04-08T02:16:20.828Z,62.77
2023-04-08T02:19:02.306Z,62.01
2023-04-08T02:21:38.456Z,62.34
2023-04-08T02:24:08.151Z,63.61
2023-04-08T02:26:37.834Z,62.50
2023-04-08T02:29:06.013Z,62.82
2023-04-08T02:31:34.706Z,63.00
2023-04-08T02:34:02.544Z,64.37
2023-04-08T02:36:32.619Z,62.39
2023-04-08T02:38:59.241Z,62.98
2023-04-08T02:41:28.954Z,63.44
2023-04-08T02:43:55.702Z,63.11
2023-04-08T02:46:22.573Z,65.49
2023-04-08T02:48:50.124Z,64.01
2023-04-08T02:51:16.891Z,62.98
2023-04-08T02:53:43.509Z,62.71
2023-04-08T02:56:10.985Z,62.77
2023-04-08T02:58:37.705Z,63.92
2023-04-08T03:01:04.714Z,64.44
2023-04-08T03:03:31.536Z,66.21
2023-04-08T03:05:58.839Z,64.13
2023-04-08T03:08:25.444Z,64.13
2023-04-08T03:10:52.099Z,66.35
2023-04-08T03:13:18.929Z,67.76
2023-04-08T03:15:45.947Z,65.69
2023-04-08T03:18:12.625Z,65.15
2023-04-08T03:20:39.256Z,65.54
2023-04-08T03:23:05.854Z,63.23
2023-04-08T03:25:32.483Z,64.05
2023-04-08T03:27:59.132Z,65.52
2023-04-08T03:30:26.074Z,65.87
2023-04-08T03:32:52.991Z,63.89
2023-04-08T03:35:19.824Z,66.85
2023-04-08T03:37:47.910Z,65.76
2023-04-08T03:40:14.515Z,64.41
2023-04-08T03:42:41.158Z,62.98
2023-04-08T03:45:08.216Z,63.48
2023-04-08T03:47:34.848Z,66.61
2023-04-08T03:50:01.501Z,70.62
2023-04-08T03:52:28.161Z,69.42
2023-04-08T03:54:54.775Z,66.86
2023-04-08T03:57:21.381Z,64.79
2023-04-08T03:59:48.165Z,64.71
2023-04-08T04:02:14.852Z,64.71
2023-04-08T04:04:41.619Z,64.95
2023-04-08T04:07:08.388Z,65.84
2023-04-08T04:09:35.115Z,64.54
2023-04-08T04:12:01.776Z,68.89
2023-04-08T04:14:28.416Z,72.08
2023-04-08T04:16:55.046Z,72.08
2023-04-08T04:19:21.810Z,73.46
2023-04-08T04:21:48.433Z,72.43
2023-04-08T04:24:15.052Z,72.97
2023-04-08T04:26:41.697Z,73.20
2023-04-08T04:29:08.355Z,72.61
2023-04-08T04:31:35.035Z,72.60
2023-04-08T04:34:01.730Z,74.05
2023-04-08T04:36:28.345Z,75.58
2023-04-08T04:38:55.103Z,74.75
2023-04-08T04:41:21.919Z,73.47
2023-04-08T04:43:48.524Z,74.72
2023-04-08T04:46:15.244Z,75.50
2023-04-08T04:48:41.893Z,75.87
2023-04-08T04:51:08.504Z,76.29
2023-04-08T04:53:35.110Z,76.38
2023-04-08T04:56:01.870Z,76.64
2023-04-08T04:58:29.571Z,76.64
2023-04-08T05:00:56.553Z,76.96
2023-04-08T05:03:23.401Z,75.14
2023-04-08T05:05:54.596Z,72.90
2023-04-08T05:08:21.839Z,72.53
2023-04-08T05:10:48.636Z,72.97
2023-04-08T05:13:15.264Z,71.10
2023-04-08T05:15:41.946Z,73.60
2023-04-08T05:18:08.651Z,72.55
2023-04-08T05:20:35.297Z,73.49
2023-04-08T05:23:01.936Z,70.93
2023-04-08T05:25:29.630Z,71.64
2023-04-08T05:27:56.438Z,71.62
2023-04-08T05:30:23.133Z,73.88
2023-04-08T05:32:51.927Z,74.34
2023-04-08T05:35:18.634Z,72.50
2023-04-08T05:37:45.278Z,74.64
2023-04-08T05:40:12.030Z,75.07
2023-04-08T05:42:38.713Z,75.34
2023-04-08T05:45:05.883Z,74.00
2023-04-08T05:47:33.100Z,75.66
2023-04-08T05:49:59.693Z,76.53
2023-04-08T05:52:26.345Z,75.68
2023-04-08T05:54:52.982Z,76.75
2023-04-08T05:57:19.605Z,75.49
2023-04-08T05:59:46.195Z,73.61
2023-04-08T06:02:12.938Z,74.40
2023-04-08T06:04:39.644Z,74.19
2023-04-08T06:07:06.324Z,73.69
2023-04-08T06:09:35.584Z,72.94
2023-04-08T06:12:02.202Z,72.14
2023-04-08T06:14:28.789Z,71.56
2023-04-08T06:16:55.404Z,71.63
2023-04-08T06:19:22.086Z,71.27
2023-04-08T06:21:48.701Z,70.56
2023-04-08T06:24:15.339Z,70.22
2023-04-08T06:26:41.948Z,70.27
2023-04-08T06:29:08.614Z,70.84
2023-04-08T06:31:35.248Z,70.76
2023-04-08T06:34:01.901Z,70.67
2023-04-08T06:36:28.522Z,69.98
2023-04-08T06:38:56.559Z,70.58
2023-04-08T06:41:25.666Z,69.66
2023-04-08T06:43:52.279Z,69.22
2023-04-08T06:46:19.044Z,69.02
2023-04-08T06:48:45.667Z,69.46
2023-04-08T06:51:13.147Z,69.01
2023-04-08T06:53:39.806Z,67.90
2023-04-08T06:56:06.975Z,66.95
2023-04-08T06:58:34.138Z,67.16
2023-04-08T07:01:01.494Z,65.40
2023-04-08T07:03:28.379Z,64.70
2023-04-08T07:05:55.120Z,61.79
2023-04-08T07:08:21.784Z,61.83
2023-04-08T07:10:48.588Z,61.62
2023-04-08T07:13:15.290Z,57.54
2023-04-08T07:15:41.975Z,54.97
2023-04-08T07:18:08.614Z,53.26
2023-04-08T07:20:35.311Z,53.94
2023-04-08T07:23:01.960Z,53.14
2023-04-08T07:25:29.040Z,52.76
2023-04-08T07:27:55.785Z,53.03
2023-04-08T07:30:22.508Z,52.76
2023-04-08T07:32:49.283Z,53.78
2023-04-08T07:35:15.936Z,55.86
2023-04-08T07:37:42.650Z,51.65
2023-04-08T07:40:09.819Z,53.79
2023-04-08T07:42:36.455Z,54.56
2023-04-08T07:45:03.172Z,51.90
2023-04-08T07:47:30.113Z,51.06
2023-04-08T07:49:59.393Z,51.11
2023-04-08T07:52:26.326Z,52.00
2023-04-08T07:54:52.951Z,51.02
2023-04-08T07:57:19.645Z,51.63
2023-04-08T07:59:46.662Z,51.66
2023-04-08T08:02:18.539Z,47.52
2023-04-08T08:04:45.331Z,51.63
2023-04-08T08:07:12.072Z,52.43
2023-04-08T08:09:38.715Z,50.84
2023-04-08T08:12:07.886Z,50.61
2023-04-08T08:14:34.480Z,51.34
2023-04-08T08:17:01.152Z,48.34
2023-04-08T08:19:28.137Z,51.33
2023-04-08T08:21:54.757Z,51.93
2023-04-08T08:24:21.351Z,50.02
2023-04-08T08:26:48.133Z,49.66
2023-04-08T08:29:14.773Z,46.75
2023-04-08T08:31:41.406Z,43.55
2023-04-08T08:34:08.213Z,49.67
2023-04-08T08:36:35.085Z,48.30
2023-04-08T08:39:02.149Z,46.33
2023-04-08T08:41:33.562Z,48.64
2023-04-08T08:44:00.573Z,49.72
2023-04-08T08:46:27.291Z,49.10
2023-04-08T08:48:53.995Z,51.44
2023-04-08T08:51:21.571Z,51.42
2023-04-08T08:53:48.270Z,50.19
2023-04-08T08:56:18.011Z,51.15
2023-04-08T08:58:46.032Z,51.43
2023-04-08T09:01:34.190Z,51.27
2023-04-08T09:04:17.524Z,51.86
2023-04-08T09:06:46.342Z,52.82
2023-04-08T09:09:13.796Z,51.49
2023-04-08T09:11:46.164Z,52.27
2023-04-08T09:14:24.692Z,53.82
2023-04-08T09:16:52.863Z,54.36
2023-04-08T09:19:21.722Z,53.42
2023-04-08T09:22:05.582Z,55.00
2023-04-08T09:24:32.212Z,53.46
2023-04-08T09:26:58.960Z,53.81
2023-04-08T09:29:28.170Z,54.24
2023-04-08T09:31:59.377Z,55.82
2023-04-08T09:34:28.283Z,56.25
2023-04-08T09:36:55.993Z,55.42
2023-04-08T09:39:22.991Z,56.18
2023-04-08T09:41:51.569Z,55.38
2023-04-08T09:44:20.517Z,54.51
2023-04-08T09:46:49.930Z,54.48
2023-04-08T09:49:26.516Z,53.76
2023-04-08T09:52:05.238Z,52.74
2023-04-08T09:54:56.717Z,52.70
2023-04-08T09:57:52.253Z,50.68
2023-04-08T10:00:22.497Z,51.12
2023-04-08T10:03:10.767Z,50.85
2023-04-08T10:05:41.362Z,51.33
2023-04-08T10:08:08.681Z,54.03
2023-04-08T10:10:39.548Z,52.06
2023-04-08T10:13:08.039Z,50.72
2023-04-08T10:15:36.639Z,50.57
2023-04-08T10:18:03.298Z,51.30
2023-04-08T10:20:36.392Z,51.85
2023-04-08T10:23:14.617Z,52.29
2023-04-08T10:25:46.782Z,51.86
2023-04-08T10:28:16.077Z,51.12
2023-04-08T10:30:46.299Z,51.16
2023-04-08T10:33:16.590Z,49.90
2023-04-08T10:35:47.976Z,51.93
2023-04-08T10:38:18.466Z,52.35
2023-04-08T10:40:45.558Z,51.44
2023-04-08T10:43:14.140Z,50.46
2023-04-08T10:45:41.431Z,49.18
2023-04-08T10:48:15.863Z,49.93
2023-04-08T10:50:43.948Z,50.37
2023-04-08T10:53:11.430Z,51.40
2023-04-08T10:55:38.387Z,50.28
2023-04-08T10:58:06.810Z,50.16
2023-04-08T11:00:34.538Z,48.57
2023-04-08T11:03:07.291Z,49.54
2023-04-08T11:05:37.394Z,48.71
2023-04-08T11:08:06.087Z,48.22
2023-04-08T11:10:38.181Z,48.91
2023-04-08T11:13:07.813Z,48.62
2023-04-08T11:15:37.536Z,48.93
2023-04-08T11:18:08.687Z,50.15
2023-04-08T11:20:35.409Z,49.29
2023-04-08T11:23:02.037Z,48.83
2023-04-08T11:25:29.837Z,49.64
2023-04-08T11:27:56.908Z,49.12
2023-04-08T11:30:24.386Z,49.12
2023-04-08T11:32:51.686Z,47.03
2023-04-08T11:35:21.498Z,48.82
2023-04-08T11:37:48.253Z,47.55
2023-04-08T11:40:21.107Z,48.12
2023-04-08T11:42:48.066Z,46.63
2023-04-08T11:45:16.604Z,44.03
2023-04-08T11:47:44.768Z,46.98
2023-04-08T11:50:11.600Z,46.96
2023-04-08T11:52:44.732Z,48.58
2023-04-08T11:55:24.458Z,46.93
2023-04-08T11:57:51.559Z,45.54
2023-04-08T12:00:19.086Z,46.41
2023-04-08T12:02:46.709Z,48.16
2023-04-08T12:05:14.801Z,47.74
2023-04-08T12:07:42.286Z,47.42
2023-04-08T12:10:13.343Z,46.26
2023-04-08T12:12:40.890Z,46.08
2023-04-08T12:15:08.593Z,45.03
2023-04-08T12:17:35.442Z,45.87
2023-04-08T12:20:02.081Z,46.30
2023-04-08T12:22:28.741Z,45.86
2023-04-08T12:24:56.329Z,45.35
2023-04-08T12:27:24.297Z,44.61
2023-04-08T12:29:50.886Z,45.16
2023-04-08T12:32:17.485Z,45.11
2023-04-08T12:34:44.148Z,44.75
2023-04-08T12:37:10.808Z,45.04
2023-04-08T12:39:37.585Z,44.58
2023-04-08T12:42:04.385Z,45.01
2023-04-08T12:44:31.011Z,44.90
2023-04-08T12:47:00.406Z,44.02
2023-04-08T12:49:28.022Z,43.80
2023-04-08T12:51:57.719Z,43.27
2023-04-08T12:54:24.368Z,42.63
2023-04-08T12:56:50.995Z,43.07
2023-04-08T12:59:17.637Z,41.16
2023-04-08T13:01:44.348Z,41.31
2023-04-08T13:04:11.421Z,42.93
2023-04-08T13:06:38.179Z,43.06
2023-04-08T13:09:04.802Z,44.56
2023-04-08T13:11:31.440Z,44.97
2023-04-08T13:13:58.052Z,44.54
2023-04-08T13:16:24.737Z,45.96
2023-04-08T13:18:51.686Z,46.11
2023-04-08T13:21:18.476Z,46.26
2023-04-08T13:23:45.106Z,45.86
2023-04-08T13:26:11.704Z,46.31
2023-04-08T13:28:53.769Z,46.67
2023-04-08T13:31:23.723Z,45.75
2023-04-08T13:33:51.028Z,45.30
2023-04-08T13:36:17.729Z,43.88
2023-04-08T13:38:44.413Z,43.31
2023-04-08T13:41:11.097Z,44.32
2023-04-08T13:43:43.021Z,43.33
2023-04-08T13:46:09.858Z,41.84
2023-04-08T13:48:36.609Z,42.36
2023-04-08T13:51:03.262Z,40.47
2023-04-08T13:53:30.009Z,41.41
2023-04-08T13:55:56.625Z,40.74
2023-04-08T13:58:24.098Z,40.98
2023-04-08T14:00:51.906Z,41.07
2023-04-08T14:03:19.357Z,41.94
2023-04-08T14:05:46.157Z,44.12
2023-04-08T14:08:12.931Z,46.09
2023-04-08T14:10:39.611Z,46.49
2023-04-08T14:13:06.212Z,47.01
2023-04-08T14:15:33.009Z,46.83
2023-04-08T14:17:59.763Z,46.95
2023-04-08T14:20:26.488Z,47.57
2023-04-08T14:22:53.076Z,44.25
2023-04-08T14:25:19.708Z,45.18
2023-04-08T14:27:57.379Z,45.39
2023-04-08T14:30:26.275Z,44.79
2023-04-08T14:32:53.071Z,42.84
2023-04-08T14:35:19.736Z,44.26
2023-04-08T14:37:46.348Z,44.79
2023-04-08T14:40:13.074Z,45.55
2023-04-08T14:42:39.739Z,44.44
2023-04-08T14:45:06.815Z,45.34
2023-04-08T14:47:33.546Z,42.93
2023-04-08T14:50:00.201Z,44.30
2023-04-08T14:52:26.869Z,43.47
2023-04-08T14:54:53.556Z,43.57
2023-04-08T14:57:20.302Z,44.33
2023-04-08T14:59:47.032Z,45.53
2023-04-08T15:02:13.892Z,46.08
2023-04-08T15:04:40.682Z,46.20
2023-04-08T15:07:07.280Z,45.94
2023-04-08T15:09:33.921Z,46.03
2023-04-08T15:12:00.580Z,46.09
2023-04-08T15:14:27.254Z,46.33
2023-04-08T15:16:53.862Z,46.95
2023-04-08T15:19:20.525Z,46.07
2023-04-08T15:21:47.179Z,47.01
2023-04-08T15:24:13.893Z,45.95
2023-04-08T15:26:40.599Z,45.02
2023-04-08T15:29:07.217Z,44.96
2023-04-08T15:31:33.959Z,45.04
2023-04-08T15:34:00.834Z,44.72
2023-04-08T15:36:27.473Z,45.26
2023-04-08T15:38:54.433Z,46.15
2023-04-08T15:41:21.284Z,44.90
2023-04-08T15:43:48.299Z,43.55
2023-04-08T15:46:19.094Z,44.77
2023-04-08T15:48:45.746Z,44.60
2023-04-08T15:51:12.403Z,44.83
2023-04-08T15:53:42.648Z,44.33
2023-04-08T15:56:13.393Z,43.80
2023-04-08T15:58:40.160Z,44.41
2023-04-08T16:01:06.775Z,43.40
2023-04-08T16:03:33.687Z,43.62
2023-04-08T16:06:00.717Z,43.78
2023-04-08T16:08:27.329Z,44.75
2023-04-08T16:10:59.889Z,44.20
2023-04-08T16:13:26.484Z,43.82
2023-04-08T16:15:53.155Z,43.59
2023-04-08T16:18:19.832Z,44.12
2023-04-08T16:20:46.416Z,43.97
2023-04-08T16:23:13.041Z,44.54
2023-04-08T16:25:39.648Z,44.95
2023-04-08T16:28:06.253Z,45.25
2023-04-08T16:30:32.953Z,44.72
2023-04-08T16:32:59.578Z,45.50
2023-04-08T16:35:26.208Z,45.74
2023-04-08T16:37:52.820Z,45.52
2023-04-08T16:40:19.461Z,44.99
2023-04-08T16:42:46.111Z,45.80
2023-04-08T16:45:12.840Z,45.12
2023-04-08T16:47:39.602Z,44.95
2023-04-08T16:50:07.891Z,46.22
2023-04-08T16:52:34.785Z,45.45
2023-04-08T16:55:01.592Z,45.07
2023-04-08T16:57:28.352Z,45.66
2023-04-08T16:59:54.996Z,44.60
2023-04-08T17:02:21.874Z,45.46
2023-04-08T17:04:49.649Z,45.64
2023-04-08T17:07:16.456Z,45.55
2023-04-08T17:09:43.082Z,45.08
2023-04-08T17:12:09.713Z,45.54
2023-04-08T17:14:36.404Z,46.32
2023-04-08T17:17:03.045Z,46.27
2023-04-08T17:19:29.658Z,46.94
2023-04-08T17:21:56.284Z,46.37
2023-04-08T17:24:22.891Z,46.75
2023-04-08T17:26:49.597Z,45.82
2023-04-08T17:29:16.214Z,45.50
2023-04-08T17:31:42.944Z,46.33
2023-04-08T17:34:09.825Z,45.50
2023-04-08T17:36:36.463Z,45.50
2023-04-08T17:39:03.174Z,46.53
2023-04-08T17:41:39.044Z,46.92
2023-04-08T17:44:07.437Z,46.72
2023-04-08T17:46:34.082Z,47.44
2023-04-08T17:49:01.709Z,47.87
2023-04-08T17:51:28.356Z,47.37
2023-04-08T17:53:55.008Z,47.43
2023-04-08T17:56:22.017Z,48.43
2023-04-08T17:58:48.765Z,48.13
2023-04-08T18:01:15.390Z,49.20
2023-04-08T18:03:42.196Z,49.22
2023-04-08T18:06:09.014Z,49.53
2023-04-08T18:08:35.746Z,49.52
2023-04-08T18:11:06.175Z,50.29
2023-04-08T18:13:33.029Z,49.79
2023-04-08T18:15:59.669Z,50.35
2023-04-08T18:18:26.391Z,50.61
2023-04-08T18:20:53.111Z,51.08
2023-04-08T18:23:19.740Z,50.89
2023-04-08T18:25:47.566Z,50.83
2023-04-08T18:28:14.372Z,51.09
2023-04-08T18:30:41.204Z,50.99
2023-04-08T18:33:07.829Z,52.07
2023-04-08T18:35:34.577Z,52.70
2023-04-08T18:38:01.266Z,52.19
2023-04-08T18:40:27.969Z,52.53
2023-04-08T18:42:54.762Z,52.95
2023-04-08T18:45:21.449Z,53.17
2023-04-08T18:47:50.430Z,53.83
2023-04-08T18:50:17.707Z,53.89
2023-04-08T18:52:44.335Z,53.51
2023-04-08T18:55:10.968Z,54.53
2023-04-08T18:57:37.554Z,54.33
2023-04-08T19:00:04.569Z,54.42
2023-04-08T19:02:31.244Z,55.39
2023-04-08T19:04:57.971Z,55.22
2023-04-08T19:07:24.585Z,55.83
2023-04-08T19:09:55.595Z,55.69
2023-04-08T19:12:22.367Z,56.72
2023-04-08T19:14:48.988Z,56.75
2023-04-08T19:17:15.583Z,56.89
2023-04-08T19:19:42.189Z,56.89
2023-04-08T19:22:08.805Z,57.31
2023-04-08T19:24:35.621Z,57.25
2023-04-08T19:27:02.253Z,57.80
2023-04-08T19:29:30.374Z,58.36
2023-04-08T19:31:57.643Z,58.06
2023-04-08T19:34:24.315Z,58.28
2023-04-08T19:36:50.929Z,58.78
2023-04-08T19:39:17.623Z,58.81
2023-04-08T19:41:44.210Z,59.06
2023-04-08T19:44:10.856Z,59.18
2023-04-08T19:46:38.042Z,59.45
2023-04-08T19:49:04.872Z,59.75
2023-04-08T19:51:31.553Z,59.61
2023-04-08T19:53:58.688Z,60.02
2023-04-08T19:56:25.443Z,60.49
2023-04-08T19:58:53.798Z,60.41
2023-04-08T20:01:20.755Z,60.33
2023-04-08T20:03:47.455Z,60.22
2023-04-08T20:06:14.186Z,59.94
2023-04-08T20:08:40.811Z,60.22
2023-04-08T20:11:07.487Z,60.66
2023-04-08T20:13:35.408Z,60.79
2023-04-08T20:16:02.093Z,60.71
2023-04-08T20:18:29.033Z,60.92
2023-04-08T20:20:55.662Z,61.01
2023-04-08T20:23:22.329Z,60.40
2023-04-08T20:25:49.023Z,60.56
2023-04-08T20:28:15.660Z,60.55
2023-04-08T20:30:42.310Z,60.78
2023-04-08T20:33:08.964Z,60.02
2023-04-08T20:35:35.614Z,60.45
2023-04-08T20:38:02.256Z,60.88
2023-04-08T20:40:28.922Z,61.40
2023-04-08T20:42:55.616Z,61.58
2023-04-08T20:45:22.368Z,61.80
2023-04-08T20:47:49.029Z,61.72
2023-04-08T20:50:15.704Z,61.08
2023-04-08T20:52:42.337Z,61.88
2023-04-08T20:55:09.325Z,62.54
2023-04-08T20:57:38.832Z,62.16
2023-04-08T21:00:08.868Z,61.87
2023-04-08T21:02:35.644Z,62.52
2023-04-08T21:05:02.382Z,63.12
2023-04-08T21:07:29.015Z,63.44
2023-04-08T21:09:55.640Z,63.68
2023-04-08T21:12:22.235Z,63.74
2023-04-08T21:14:48.954Z,63.27
2023-04-08T21:17:15.564Z,63.46
2023-04-08T21:19:42.269Z,63.07
2023-04-08T21:22:08.987Z,62.88
2023-04-08T21:24:35.629Z,62.74
2023-04-08T21:27:02.246Z,62.89
2023-04-08T21:29:28.835Z,62.79
2023-04-08T21:31:55.552Z,62.90
2023-04-08T21:34:22.245Z,62.38
2023-04-08T21:36:48.898Z,62.23
2023-04-08T21:39:15.526Z,62.56
2023-04-08T21:41:42.211Z,61.97
2023-04-08T21:44:08.950Z,62.54
2023-04-08T21:46:35.619Z,62.73
2023-04-08T21:49:02.233Z,62.81
2023-04-08T21:51:28.826Z,63.24
2023-04-08T21:53:55.501Z,63.31
2023-04-08T21:56:23.344Z,63.34
2023-04-08T21:58:50.579Z,63.07
2023-04-08T22:01:19.825Z,62.81
2023-04-08T22:03:46.496Z,62.58
2023-04-08T22:06:22.093Z,62.65
2023-04-08T22:08:56.092Z,62.42
2023-04-08T22:11:22.892Z,62.54
2023-04-08T22:13:49.650Z,62.37
2023-04-08T22:16:16.279Z,62.39
2023-04-08T22:18:42.922Z,62.91
2023-04-08T22:21:09.559Z,62.78
2023-04-08T22:23:36.327Z,62.41
2023-04-08T22:26:02.976Z,62.88
2023-04-08T22:28:29.584Z,62.66
2023-04-08T22:30:56.232Z,62.70
2023-04-08T22:33:22.874Z,62.87
2023-04-08T22:35:49.578Z,62.49
2023-04-08T22:38:16.255Z,62.35
2023-04-08T22:40:42.841Z,62.37
2023-04-08T22:43:09.429Z,62.28
2023-04-08T22:45:37.131Z,62.30
2023-04-08T22:48:03.854Z,62.83
2023-04-08T22:50:30.493Z,63.31
2023-04-08T22:52:57.218Z,63.62
2023-04-08T22:55:23.945Z,63.70
2023-04-08T22:57:50.648Z,63.59
2023-04-08T23:00:17.559Z,63.66
2023-04-08T23:02:44.267Z,63.24
2023-04-08T23:05:11.031Z,63.28
2023-04-08T23:07:37.651Z,63.52
2023-04-08T23:10:04.802Z,62.48
2023-04-08T23:12:31.589Z,62.93
2023-04-08T23:14:58.332Z,63.08
2023-04-08T23:17:25.080Z,63.22
2023-04-08T23:19:52.284Z,63.28
2023-04-08T23:22:18.930Z,62.76
2023-04-08T23:24:45.581Z,63.21
2023-04-08T23:27:12.221Z,63.35
2023-04-08T23:29:38.821Z,63.49
2023-04-08T23:32:05.467Z,63.35
2023-04-08T23:34:35.906Z,62.07
2023-04-08T23:37:02.570Z,60.60
2023-04-08T23:39:29.201Z,62.68
2023-04-08T23:41:56.416Z,63.14
2023-04-08T23:44:24.736Z,63.34
2023-04-08T23:46:51.522Z,62.96
2023-04-08T23:49:18.201Z,64.16
2023-04-08T23:51:44.834Z,64.38
2023-04-08T23:54:14.058Z,65.99
2023-04-08T23:56:41.287Z,67.09
2023-04-08T23:59:07.935Z,67.23
